sensor_id;sensor_type;location;lat;lon;timestamp;P1;durP1;ratioP1;P2;durP2;ratioP2
6412;SDS011;3239;48.714;9.472;2023-07-20T00:01:15;1.63;;;1.17;;
6412;SDS011;3239;48.714;9.472;2023-07-20T00:03:41;2.43;;;1.30;;
6412;SDS011;3239;48.714;9.472;2023-07-20T00:06:06;4.90;;;1.20;;
6412;SDS011;3239;48.714;9.472;2023-07-20T00:08:32;4.50;;;1.50;;
6412;SDS011;3239;48.714;9.472;2023-07-20T00:10:58;1.83;;;0.90;;
6412;SDS011;3239;48.714;9.472;2023-07-20T00:13:24;5.73;;;1.50;;
6412;SDS011;3239;48.714;9.472;2023-07-20T00:15:51;3.00;;;1.50;;
6412;SDS011;3239;48.714;9.472;2023-07-20T00:18:17;3.10;;;1.50;;
6412;SDS011;3239;48.714;9.472;2023-07-20T00:20:42;3.17;;;1.17;;
6412;SDS011;3239;48.714;9.472;2023-07-20T00:23:08;2.83;;;1.47;;
6412;SDS011;3239;48.714;9.472;2023-07-20T00:25:34;3.70;;;1.50;;
6412;SDS011;3239;48.714;9.472;2023-07-20T00:28:01;2.07;;;1.43;;
6412;SDS011;3239;48.714;9.472;2023-07-20T00:30:26;5.13;;;1.80;;
6412;SDS011;3239;48.714;9.472;2023-07-20T00:32:52;3.60;;;1.60;;
6412;SDS011;3239;48.714;9.472;2023-07-20T00:35:18;2.57;;;1.57;;
6412;SDS011;3239;48.714;9.472;2023-07-20T00:37:44;2.13;;;1.53;;
6412;SDS011;3239;48.714;9.472;2023-07-20T00:40:09;3.13;;;1.70;;
6412;SDS011;3239;48.714;9.472;2023-07-20T00:42:35;5.67;;;1.67;;
6412;SDS011;3239;48.714;9.472;2023-07-20T00:45:01;1.73;;;1.47;;
6412;SDS011;3239;48.714;9.472;2023-07-20T00:47:27;4.23;;;1.60;;
6412;SDS011;3239;48.714;9.472;2023-07-20T00:49:53;2.10;;;1.73;;
6412;SDS011;3239;48.714;9.472;2023-07-20T00:52:23;2.37;;;1.60;;
6412;SDS011;3239;48.714;9.472;2023-07-20T00:54:50;2.23;;;1.43;;
6412;SDS011;3239;48.714;9.472;2023-07-20T00:57:17;2.50;;;1.83;;
6412;SDS011;3239;48.714;9.472;2023-07-20T00:59:44;3.20;;;1.40;;
6412;SDS011;3239;48.714;9.472;2023-07-20T01:02:10;2.30;;;1.77;;
6412;SDS011;3239;48.714;9.472;2023-07-20T01:04:35;2.03;;;1.30;;
6412;SDS011;3239;48.714;9.472;2023-07-20T01:10:09;1.60;;;1.00;;
6412;SDS011;3239;48.714;9.472;2023-07-20T01:12:42;4.13;;;1.77;;
6412;SDS011;3239;48.714;9.472;2023-07-20T01:15:12;2.40;;;1.60;;
6412;SDS011;3239;48.714;9.472;2023-07-20T01:17:39;2.73;;;1.50;;
6412;SDS011;3239;48.714;9.472;2023-07-20T01:20:06;1.93;;;1.50;;
6412;SDS011;3239;48.714;9.472;2023-07-20T01:22:50;2.23;;;1.30;;
6412;SDS011;3239;48.714;9.472;2023-07-20T01:28:35;2.23;;;1.33;;
6412;SDS011;3239;48.714;9.472;2023-07-20T01:33:56;2.63;;;1.30;;
6412;SDS011;3239;48.714;9.472;2023-07-20T01:36:26;1.90;;;1.30;;
6412;SDS011;3239;48.714;9.472;2023-07-20T01:38:58;2.20;;;1.43;;
6412;SDS011;3239;48.714;9.472;2023-07-20T01:41:24;2.37;;;1.60;;
6412;SDS011;3239;48.714;9.472;2023-07-20T01:43:50;4.50;;;1.90;;
6412;SDS011;3239;48.714;9.472;2023-07-20T01:46:16;2.33;;;1.63;;
6412;SDS011;3239;48.714;9.472;2023-07-20T01:48:41;1.90;;;1.10;;
6412;SDS011;3239;48.714;9.472;2023-07-20T01:51:07;2.23;;;1.67;;
6412;SDS011;3239;48.714;9.472;2023-07-20T01:53:33;2.00;;;1.37;;
6412;SDS011;3239;48.714;9.472;2023-07-20T01:55:59;1.47;;;1.00;;
6412;SDS011;3239;48.714;9.472;2023-07-20T01:58:25;2.03;;;1.30;;
6412;SDS011;3239;48.714;9.472;2023-07-20T02:00:51;1.80;;;1.17;;
6412;SDS011;3239;48.714;9.472;2023-07-20T02:03:16;3.90;;;1.60;;
6412;SDS011;3239;48.714;9.472;2023-07-20T02:05:42;1.93;;;1.47;;
6412;SDS011;3239;48.714;9.472;2023-07-20T02:08:09;3.63;;;1.40;;
6412;SDS011;3239;48.714;9.472;2023-07-20T02:10:35;2.80;;;1.60;;
6412;SDS011;3239;48.714;9.472;2023-07-20T02:13:01;5.20;;;1.93;;
6412;SDS011;3239;48.714;9.472;2023-07-20T02:15:26;3.00;;;1.50;;
6412;SDS011;3239;48.714;9.472;2023-07-20T02:17:53;2.10;;;1.30;;
6412;SDS011;3239;48.714;9.472;2023-07-20T02:20:19;2.83;;;1.70;;
6412;SDS011;3239;48.714;9.472;2023-07-20T02:22:46;2.10;;;1.53;;
6412;SDS011;3239;48.714;9.472;2023-07-20T02:25:11;2.20;;;1.77;;
6412;SDS011;3239;48.714;9.472;2023-07-20T02:27:37;3.43;;;1.40;;
6412;SDS011;3239;48.714;9.472;2023-07-20T02:30:04;3.30;;;1.40;;
6412;SDS011;3239;48.714;9.472;2023-07-20T02:32:30;3.90;;;1.30;;
6412;SDS011;3239;48.714;9.472;2023-07-20T02:34:57;3.40;;;1.47;;
6412;SDS011;3239;48.714;9.472;2023-07-20T02:37:23;2.37;;;1.30;;
6412;SDS011;3239;48.714;9.472;2023-07-20T02:39:49;2.53;;;1.50;;
6412;SDS011;3239;48.714;9.472;2023-07-20T02:42:15;2.60;;;1.57;;
6412;SDS011;3239;48.714;9.472;2023-07-20T02:44:41;1.97;;;1.30;;
6412;SDS011;3239;48.714;9.472;2023-07-20T02:47:07;2.43;;;1.67;;
6412;SDS011;3239;48.714;9.472;2023-07-20T02:49:33;2.07;;;1.23;;
6412;SDS011;3239;48.714;9.472;2023-07-20T02:51:59;6.27;;;1.77;;
6412;SDS011;3239;48.714;9.472;2023-07-20T02:54:24;3.60;;;1.57;;
6412;SDS011;3239;48.714;9.472;2023-07-20T02:56:50;2.80;;;1.40;;
6412;SDS011;3239;48.714;9.472;2023-07-20T02:59:16;2.10;;;1.63;;
6412;SDS011;3239;48.714;9.472;2023-07-20T03:01:42;3.00;;;1.60;;
6412;SDS011;3239;48.714;9.472;2023-07-20T03:04:08;3.23;;;1.97;;
6412;SDS011;3239;48.714;9.472;2023-07-20T03:06:36;2.47;;;1.47;;
6412;SDS011;3239;48.714;9.472;2023-07-20T03:09:02;6.73;;;1.50;;
6412;SDS011;3239;48.714;9.472;2023-07-20T03:11:29;1.67;;;1.23;;
6412;SDS011;3239;48.714;9.472;2023-07-20T03:13:54;1.83;;;1.50;;
6412;SDS011;3239;48.714;9.472;2023-07-20T03:16:21;2.40;;;1.47;;
6412;SDS011;3239;48.714;9.472;2023-07-20T03:18:50;2.07;;;1.70;;
6412;SDS011;3239;48.714;9.472;2023-07-20T03:21:16;2.93;;;1.40;;
6412;SDS011;3239;48.714;9.472;2023-07-20T03:23:41;9.33;;;1.73;;
6412;SDS011;3239;48.714;9.472;2023-07-20T03:26:08;3.90;;;1.43;;
6412;SDS011;3239;48.714;9.472;2023-07-20T03:28:37;3.20;;;1.70;;
6412;SDS011;3239;48.714;9.472;2023-07-20T03:31:04;2.90;;;1.70;;
6412;SDS011;3239;48.714;9.472;2023-07-20T03:33:30;3.07;;;1.40;;
6412;SDS011;3239;48.714;9.472;2023-07-20T03:35:57;2.83;;;1.43;;
6412;SDS011;3239;48.714;9.472;2023-07-20T03:38:23;2.17;;;1.60;;
6412;SDS011;3239;48.714;9.472;2023-07-20T03:40:50;2.27;;;1.50;;
6412;SDS011;3239;48.714;9.472;2023-07-20T03:43:21;2.83;;;1.97;;
6412;SDS011;3239;48.714;9.472;2023-07-20T03:45:48;3.17;;;1.60;;
6412;SDS011;3239;48.714;9.472;2023-07-20T03:48:15;3.40;;;1.70;;
6412;SDS011;3239;48.714;9.472;2023-07-20T03:50:43;2.03;;;1.53;;
6412;SDS011;3239;48.714;9.472;2023-07-20T03:53:13;3.27;;;1.70;;
6412;SDS011;3239;48.714;9.472;2023-07-20T03:55:40;2.90;;;1.90;;
6412;SDS011;3239;48.714;9.472;2023-07-20T03:58:10;2.30;;;1.77;;
6412;SDS011;3239;48.714;9.472;2023-07-20T04:00:37;2.20;;;1.90;;
6412;SDS011;3239;48.714;9.472;2023-07-20T04:03:02;2.63;;;2.00;;
6412;SDS011;3239;48.714;9.472;2023-07-20T04:05:28;3.27;;;1.57;;
6412;SDS011;3239;48.714;9.472;2023-07-20T04:07:54;1.87;;;1.37;;
6412;SDS011;3239;48.714;9.472;2023-07-20T04:10:20;1.80;;;1.47;;
6412;SDS011;3239;48.714;9.472;2023-07-20T04:12:46;2.40;;;1.80;;
6412;SDS011;3239;48.714;9.472;2023-07-20T04:15:12;5.10;;;1.87;;
6412;SDS011;3239;48.714;9.472;2023-07-20T04:17:39;1.97;;;1.40;;
6412;SDS011;3239;48.714;9.472;2023-07-20T04:20:08;2.93;;;1.90;;
6412;SDS011;3239;48.714;9.472;2023-07-20T04:22:34;2.73;;;1.80;;
6412;SDS011;3239;48.714;9.472;2023-07-20T04:25:00;2.00;;;1.70;;
6412;SDS011;3239;48.714;9.472;2023-07-20T04:27:26;7.33;;;1.70;;
6412;SDS011;3239;48.714;9.472;2023-07-20T04:29:52;3.73;;;2.23;;
6412;SDS011;3239;48.714;9.472;2023-07-20T04:32:18;1.70;;;1.40;;
6412;SDS011;3239;48.714;9.472;2023-07-20T04:34:44;6.70;;;2.37;;
6412;SDS011;3239;48.714;9.472;2023-07-20T04:37:10;2.20;;;1.70;;
6412;SDS011;3239;48.714;9.472;2023-07-20T04:39:35;2.20;;;1.73;;
6412;SDS011;3239;48.714;9.472;2023-07-20T04:42:01;2.40;;;1.90;;
6412;SDS011;3239;48.714;9.472;2023-07-20T04:44:27;2.30;;;1.73;;
6412;SDS011;3239;48.714;9.472;2023-07-20T04:46:53;2.80;;;1.60;;
6412;SDS011;3239;48.714;9.472;2023-07-20T04:49:18;2.30;;;1.83;;
6412;SDS011;3239;48.714;9.472;2023-07-20T04:51:45;2.37;;;1.47;;
6412;SDS011;3239;48.714;9.472;2023-07-20T04:54:10;2.30;;;1.90;;
6412;SDS011;3239;48.714;9.472;2023-07-20T04:56:36;2.40;;;1.83;;
6412;SDS011;3239;48.714;9.472;2023-07-20T04:59:02;2.30;;;2.10;;
6412;SDS011;3239;48.714;9.472;2023-07-20T05:01:28;2.47;;;1.90;;
6412;SDS011;3239;48.714;9.472;2023-07-20T05:03:53;2.40;;;1.83;;
6412;SDS011;3239;48.714;9.472;2023-07-20T05:06:19;2.10;;;1.50;;
6412;SDS011;3239;48.714;9.472;2023-07-20T05:08:45;3.30;;;2.33;;
6412;SDS011;3239;48.714;9.472;2023-07-20T05:11:11;2.70;;;1.77;;
6412;SDS011;3239;48.714;9.472;2023-07-20T05:13:37;3.30;;;2.53;;
6412;SDS011;3239;48.714;9.472;2023-07-20T05:16:03;2.57;;;2.07;;
6412;SDS011;3239;48.714;9.472;2023-07-20T05:18:29;7.20;;;2.60;;
6412;SDS011;3239;48.714;9.472;2023-07-20T05:20:55;5.10;;;2.07;;
6412;SDS011;3239;48.714;9.472;2023-07-20T05:23:21;6.07;;;2.00;;
6412;SDS011;3239;48.714;9.472;2023-07-20T05:25:47;5.67;;;2.43;;
6412;SDS011;3239;48.714;9.472;2023-07-20T05:28:23;2.63;;;2.03;;
6412;SDS011;3239;48.714;9.472;2023-07-20T05:30:51;3.33;;;2.17;;
6412;SDS011;3239;48.714;9.472;2023-07-20T05:33:17;3.00;;;1.63;;
6412;SDS011;3239;48.714;9.472;2023-07-20T05:35:44;2.80;;;1.50;;
6412;SDS011;3239;48.714;9.472;2023-07-20T05:38:10;3.80;;;1.50;;
6412;SDS011;3239;48.714;9.472;2023-07-20T05:40:40;2.37;;;1.60;;
6412;SDS011;3239;48.714;9.472;2023-07-20T05:43:07;2.20;;;1.40;;
6412;SDS011;3239;48.714;9.472;2023-07-20T05:45:33;3.67;;;2.27;;
6412;SDS011;3239;48.714;9.472;2023-07-20T05:47:59;2.47;;;1.90;;
6412;SDS011;3239;48.714;9.472;2023-07-20T05:50:25;2.43;;;1.90;;
6412;SDS011;3239;48.714;9.472;2023-07-20T05:52:54;3.10;;;2.27;;
6412;SDS011;3239;48.714;9.472;2023-07-20T05:55:20;5.53;;;2.30;;
6412;SDS011;3239;48.714;9.472;2023-07-20T05:57:46;4.33;;;2.47;;
6412;SDS011;3239;48.714;9.472;2023-07-20T06:00:12;6.30;;;1.80;;
6412;SDS011;3239;48.714;9.472;2023-07-20T06:02:39;5.20;;;1.83;;
6412;SDS011;3239;48.714;9.472;2023-07-20T06:05:08;2.67;;;1.73;;
6412;SDS011;3239;48.714;9.472;2023-07-20T06:07:35;3.23;;;1.60;;
6412;SDS011;3239;48.714;9.472;2023-07-20T06:10:01;3.70;;;2.03;;
6412;SDS011;3239;48.714;9.472;2023-07-20T06:12:28;4.00;;;1.90;;
6412;SDS011;3239;48.714;9.472;2023-07-20T06:14:53;2.80;;;1.80;;
6412;SDS011;3239;48.714;9.472;2023-07-20T06:17:19;2.20;;;1.50;;
6412;SDS011;3239;48.714;9.472;2023-07-20T06:19:45;2.00;;;1.80;;
6412;SDS011;3239;48.714;9.472;2023-07-20T06:22:11;3.00;;;1.87;;
6412;SDS011;3239;48.714;9.472;2023-07-20T06:24:37;2.90;;;1.90;;
6412;SDS011;3239;48.714;9.472;2023-07-20T06:27:03;2.70;;;1.77;;
6412;SDS011;3239;48.714;9.472;2023-07-20T06:29:31;2.87;;;1.90;;
6412;SDS011;3239;48.714;9.472;2023-07-20T06:31:56;3.73;;;1.70;;
6412;SDS011;3239;48.714;9.472;2023-07-20T06:34:22;4.20;;;2.03;;
6412;SDS011;3239;48.714;9.472;2023-07-20T06:36:48;3.90;;;2.20;;
6412;SDS011;3239;48.714;9.472;2023-07-20T06:39:14;2.27;;;1.70;;
6412;SDS011;3239;48.714;9.472;2023-07-20T06:41:40;2.53;;;1.80;;
6412;SDS011;3239;48.714;9.472;2023-07-20T06:44:05;3.20;;;1.60;;
6412;SDS011;3239;48.714;9.472;2023-07-20T06:46:33;2.93;;;1.97;;
6412;SDS011;3239;48.714;9.472;2023-07-20T06:48:58;3.40;;;1.57;;
6412;SDS011;3239;48.714;9.472;2023-07-20T06:51:24;2.73;;;1.90;;
6412;SDS011;3239;48.714;9.472;2023-07-20T06:53:51;2.20;;;1.60;;
6412;SDS011;3239;48.714;9.472;2023-07-20T06:56:17;2.07;;;1.70;;
6412;SDS011;3239;48.714;9.472;2023-07-20T06:58:43;4.50;;;1.40;;
6412;SDS011;3239;48.714;9.472;2023-07-20T07:01:08;5.70;;;1.90;;
6412;SDS011;3239;48.714;9.472;2023-07-20T07:03:34;3.10;;;2.00;;
6412;SDS011;3239;48.714;9.472;2023-07-20T07:06:01;2.50;;;1.60;;
6412;SDS011;3239;48.714;9.472;2023-07-20T07:08:27;2.47;;;1.80;;
6412;SDS011;3239;48.714;9.472;2023-07-20T07:10:53;4.30;;;1.63;;
6412;SDS011;3239;48.714;9.472;2023-07-20T07:13:19;4.23;;;1.80;;
6412;SDS011;3239;48.714;9.472;2023-07-20T07:15:45;4.20;;;1.97;;
6412;SDS011;3239;48.714;9.472;2023-07-20T07:18:11;2.90;;;1.53;;
6412;SDS011;3239;48.714;9.472;2023-07-20T07:20:36;2.97;;;1.47;;
6412;SDS011;3239;48.714;9.472;2023-07-20T07:23:02;2.20;;;1.47;;
6412;SDS011;3239;48.714;9.472;2023-07-20T07:25:28;2.67;;;1.77;;
6412;SDS011;3239;48.714;9.472;2023-07-20T07:27:56;4.13;;;1.47;;
6412;SDS011;3239;48.714;9.472;2023-07-20T07:30:22;2.10;;;1.30;;
6412;SDS011;3239;48.714;9.472;2023-07-20T07:32:47;3.43;;;1.40;;
6412;SDS011;3239;48.714;9.472;2023-07-20T07:35:14;4.07;;;2.00;;
6412;SDS011;3239;48.714;9.472;2023-07-20T07:37:40;2.10;;;1.40;;
6412;SDS011;3239;48.714;9.472;2023-07-20T07:40:07;2.67;;;1.80;;
6412;SDS011;3239;48.714;9.472;2023-07-20T07:42:33;2.30;;;1.40;;
6412;SDS011;3239;48.714;9.472;2023-07-20T07:44:59;3.07;;;1.30;;
6412;SDS011;3239;48.714;9.472;2023-07-20T07:47:25;2.07;;;1.20;;
6412;SDS011;3239;48.714;9.472;2023-07-20T07:49:51;2.33;;;1.37;;
6412;SDS011;3239;48.714;9.472;2023-07-20T07:52:17;5.23;;;1.47;;
6412;SDS011;3239;48.714;9.472;2023-07-20T07:54:42;5.60;;;1.77;;
6412;SDS011;3239;48.714;9.472;2023-07-20T07:57:08;2.40;;;1.40;;
6412;SDS011;3239;48.714;9.472;2023-07-20T07:59:34;2.20;;;1.27;;
6412;SDS011;3239;48.714;9.472;2023-07-20T08:02:02;3.43;;;1.80;;
6412;SDS011;3239;48.714;9.472;2023-07-20T08:04:31;3.47;;;1.40;;
6412;SDS011;3239;48.714;9.472;2023-07-20T08:06:57;12.17;;;1.70;;
6412;SDS011;3239;48.714;9.472;2023-07-20T08:09:24;3.37;;;1.40;;
6412;SDS011;3239;48.714;9.472;2023-07-20T08:11:50;2.43;;;1.30;;
6412;SDS011;3239;48.714;9.472;2023-07-20T08:14:16;2.20;;;1.50;;
6412;SDS011;3239;48.714;9.472;2023-07-20T08:16:42;2.87;;;1.17;;
6412;SDS011;3239;48.714;9.472;2023-07-20T08:19:08;2.20;;;1.40;;
6412;SDS011;3239;48.714;9.472;2023-07-20T08:21:34;1.83;;;1.00;;
6412;SDS011;3239;48.714;9.472;2023-07-20T08:23:59;2.97;;;1.63;;
6412;SDS011;3239;48.714;9.472;2023-07-20T08:26:25;3.87;;;1.43;;
6412;SDS011;3239;48.714;9.472;2023-07-20T08:28:51;1.93;;;1.23;;
6412;SDS011;3239;48.714;9.472;2023-07-20T08:31:16;2.63;;;1.50;;
6412;SDS011;3239;48.714;9.472;2023-07-20T08:33:43;2.53;;;1.40;;
6412;SDS011;3239;48.714;9.472;2023-07-20T08:36:08;3.73;;;1.23;;
6412;SDS011;3239;48.714;9.472;2023-07-20T08:38:34;6.87;;;1.27;;
6412;SDS011;3239;48.714;9.472;2023-07-20T08:41:00;2.57;;;1.53;;
6412;SDS011;3239;48.714;9.472;2023-07-20T08:43:27;3.73;;;1.67;;
6412;SDS011;3239;48.714;9.472;2023-07-20T08:45:56;2.47;;;1.20;;
6412;SDS011;3239;48.714;9.472;2023-07-20T08:48:23;2.50;;;1.50;;
6412;SDS011;3239;48.714;9.472;2023-07-20T08:50:52;1.93;;;1.23;;
6412;SDS011;3239;48.714;9.472;2023-07-20T08:53:19;2.60;;;1.53;;
6412;SDS011;3239;48.714;9.472;2023-07-20T08:55:45;5.23;;;1.70;;
6412;SDS011;3239;48.714;9.472;2023-07-20T08:58:15;2.73;;;1.30;;
6412;SDS011;3239;48.714;9.472;2023-07-20T09:00:42;3.40;;;1.37;;
6412;SDS011;3239;48.714;9.472;2023-07-20T09:03:08;6.47;;;1.70;;
6412;SDS011;3239;48.714;9.472;2023-07-20T09:05:36;3.93;;;1.63;;
6412;SDS011;3239;48.714;9.472;2023-07-20T09:08:02;6.30;;;1.73;;
6412;SDS011;3239;48.714;9.472;2023-07-20T09:10:28;3.80;;;1.70;;
6412;SDS011;3239;48.714;9.472;2023-07-20T09:12:54;3.53;;;1.97;;
6412;SDS011;3239;48.714;9.472;2023-07-20T09:15:21;1.83;;;1.40;;
6412;SDS011;3239;48.714;9.472;2023-07-20T09:17:48;2.50;;;1.30;;
6412;SDS011;3239;48.714;9.472;2023-07-20T09:20:16;2.60;;;1.70;;
6412;SDS011;3239;48.714;9.472;2023-07-20T09:22:43;1.97;;;1.20;;
6412;SDS011;3239;48.714;9.472;2023-07-20T09:25:13;4.00;;;1.53;;
6412;SDS011;3239;48.714;9.472;2023-07-20T09:27:41;4.13;;;1.53;;
6412;SDS011;3239;48.714;9.472;2023-07-20T09:30:10;3.37;;;1.27;;
6412;SDS011;3239;48.714;9.472;2023-07-20T09:32:42;3.20;;;1.70;;
6412;SDS011;3239;48.714;9.472;2023-07-20T09:35:15;3.57;;;1.70;;
6412;SDS011;3239;48.714;9.472;2023-07-20T09:37:47;2.20;;;1.63;;
6412;SDS011;3239;48.714;9.472;2023-07-20T09:40:26;4.63;;;1.90;;
6412;SDS011;3239;48.714;9.472;2023-07-20T09:42:53;3.37;;;1.70;;
6412;SDS011;3239;48.714;9.472;2023-07-20T09:45:34;2.70;;;1.10;;
6412;SDS011;3239;48.714;9.472;2023-07-20T09:48:07;3.33;;;1.30;;
6412;SDS011;3239;48.714;9.472;2023-07-20T09:50:39;3.10;;;1.60;;
6412;SDS011;3239;48.714;9.472;2023-07-20T09:53:13;2.57;;;1.57;;
6412;SDS011;3239;48.714;9.472;2023-07-20T09:55:43;2.93;;;1.70;;
6412;SDS011;3239;48.714;9.472;2023-07-20T09:58:10;2.87;;;1.47;;
6412;SDS011;3239;48.714;9.472;2023-07-20T10:00:37;2.53;;;1.47;;
6412;SDS011;3239;48.714;9.472;2023-07-20T10:03:04;4.70;;;1.37;;
6412;SDS011;3239;48.714;9.472;2023-07-20T10:05:34;5.33;;;1.80;;
6412;SDS011;3239;48.714;9.472;2023-07-20T10:08:04;8.07;;;1.73;;
6412;SDS011;3239;48.714;9.472;2023-07-20T10:10:30;9.17;;;1.33;;
6412;SDS011;3239;48.714;9.472;2023-07-20T10:12:59;2.97;;;1.30;;
6412;SDS011;3239;48.714;9.472;2023-07-20T10:15:33;5.93;;;1.63;;
6412;SDS011;3239;48.714;9.472;2023-07-20T10:18:17;1.50;;;1.30;;
6412;SDS011;3239;48.714;9.472;2023-07-20T10:20:55;2.60;;;1.27;;
6412;SDS011;3239;48.714;9.472;2023-07-20T10:23:24;2.57;;;1.60;;
6412;SDS011;3239;48.714;9.472;2023-07-20T10:25:51;3.53;;;1.43;;
6412;SDS011;3239;48.714;9.472;2023-07-20T10:28:18;1.80;;;1.20;;
6412;SDS011;3239;48.714;9.472;2023-07-20T10:30:44;2.10;;;1.30;;
6412;SDS011;3239;48.714;9.472;2023-07-20T10:33:11;1.80;;;1.23;;
6412;SDS011;3239;48.714;9.472;2023-07-20T10:35:51;2.43;;;1.37;;
6412;SDS011;3239;48.714;9.472;2023-07-20T10:38:18;1.97;;;1.33;;
6412;SDS011;3239;48.714;9.472;2023-07-20T10:40:43;2.53;;;1.10;;
6412;SDS011;3239;48.714;9.472;2023-07-20T10:43:20;3.00;;;1.13;;
6412;SDS011;3239;48.714;9.472;2023-07-20T10:45:50;7.93;;;1.60;;
6412;SDS011;3239;48.714;9.472;2023-07-20T10:53:44;1.93;;;1.43;;
6412;SDS011;3239;48.714;9.472;2023-07-20T10:56:13;2.27;;;1.20;;
6412;SDS011;3239;48.714;9.472;2023-07-20T10:58:45;4.87;;;1.40;;
6412;SDS011;3239;48.714;9.472;2023-07-20T11:01:15;2.87;;;1.73;;
6412;SDS011;3239;48.714;9.472;2023-07-20T11:03:42;2.80;;;1.67;;
6412;SDS011;3239;48.714;9.472;2023-07-20T11:09:03;4.90;;;1.77;;
6412;SDS011;3239;48.714;9.472;2023-07-20T11:11:40;2.70;;;1.53;;
6412;SDS011;3239;48.714;9.472;2023-07-20T11:14:25;3.60;;;1.50;;
6412;SDS011;3239;48.714;9.472;2023-07-20T11:16:52;3.10;;;1.27;;
6412;SDS011;3239;48.714;9.472;2023-07-20T11:19:26;2.90;;;1.30;;
6412;SDS011;3239;48.714;9.472;2023-07-20T11:21:52;3.37;;;1.50;;
6412;SDS011;3239;48.714;9.472;2023-07-20T11:24:23;4.37;;;1.37;;
6412;SDS011;3239;48.714;9.472;2023-07-20T11:26:53;2.00;;;1.10;;
6412;SDS011;3239;48.714;9.472;2023-07-20T11:29:20;3.03;;;1.20;;
6412;SDS011;3239;48.714;9.472;2023-07-20T11:31:48;4.83;;;1.40;;
6412;SDS011;3239;48.714;9.472;2023-07-20T11:34:17;3.13;;;1.40;;
6412;SDS011;3239;48.714;9.472;2023-07-20T11:36:49;3.53;;;1.20;;
6412;SDS011;3239;48.714;9.472;2023-07-20T11:39:17;2.10;;;0.90;;
6412;SDS011;3239;48.714;9.472;2023-07-20T11:41:46;2.97;;;1.07;;
6412;SDS011;3239;48.714;9.472;2023-07-20T11:44:24;3.00;;;1.10;;
6412;SDS011;3239;48.714;9.472;2023-07-20T11:49:35;1.70;;;1.10;;
6412;SDS011;3239;48.714;9.472;2023-07-20T11:52:13;2.17;;;1.00;;
6412;SDS011;3239;48.714;9.472;2023-07-20T11:54:41;5.10;;;1.33;;
6412;SDS011;3239;48.714;9.472;2023-07-20T11:57:18;5.93;;;1.20;;
6412;SDS011;3239;48.714;9.472;2023-07-20T11:59:53;1.83;;;1.20;;
6412;SDS011;3239;48.714;9.472;2023-07-20T12:02:26;1.47;;;1.00;;
6412;SDS011;3239;48.714;9.472;2023-07-20T12:04:56;2.17;;;1.20;;
6412;SDS011;3239;48.714;9.472;2023-07-20T12:07:25;2.10;;;1.10;;
6412;SDS011;3239;48.714;9.472;2023-07-20T12:10:03;2.50;;;1.13;;
6412;SDS011;3239;48.714;9.472;2023-07-20T12:12:40;3.53;;;1.20;;
6412;SDS011;3239;48.714;9.472;2023-07-20T12:15:21;24.30;;;1.60;;
6412;SDS011;3239;48.714;9.472;2023-07-20T12:17:55;3.17;;;1.27;;
6412;SDS011;3239;48.714;9.472;2023-07-20T12:20:32;6.20;;;1.13;;
6412;SDS011;3239;48.714;9.472;2023-07-20T12:23:09;3.10;;;1.00;;
6412;SDS011;3239;48.714;9.472;2023-07-20T12:25:41;2.60;;;1.10;;
6412;SDS011;3239;48.714;9.472;2023-07-20T12:28:09;3.27;;;1.30;;
6412;SDS011;3239;48.714;9.472;2023-07-20T12:30:41;1.60;;;1.10;;
6412;SDS011;3239;48.714;9.472;2023-07-20T12:33:09;1.80;;;1.20;;
6412;SDS011;3239;48.714;9.472;2023-07-20T12:35:36;1.50;;;1.03;;
6412;SDS011;3239;48.714;9.472;2023-07-20T12:38:02;2.43;;;1.20;;
6412;SDS011;3239;48.714;9.472;2023-07-20T12:40:28;4.40;;;1.23;;
6412;SDS011;3239;48.714;9.472;2023-07-20T12:42:54;1.33;;;0.83;;
6412;SDS011;3239;48.714;9.472;2023-07-20T12:45:22;1.50;;;1.00;;
6412;SDS011;3239;48.714;9.472;2023-07-20T12:47:48;3.20;;;1.30;;
6412;SDS011;3239;48.714;9.472;2023-07-20T12:50:14;1.63;;;0.90;;
6412;SDS011;3239;48.714;9.472;2023-07-20T12:52:40;2.80;;;1.00;;
6412;SDS011;3239;48.714;9.472;2023-07-20T12:55:06;1.40;;;0.73;;
6412;SDS011;3239;48.714;9.472;2023-07-20T12:57:34;7.23;;;1.30;;
6412;SDS011;3239;48.714;9.472;2023-07-20T13:00:02;1.47;;;0.80;;
6412;SDS011;3239;48.714;9.472;2023-07-20T13:02:34;1.87;;;1.00;;
6412;SDS011;3239;48.714;9.472;2023-07-20T13:05:01;2.93;;;1.00;;
6412;SDS011;3239;48.714;9.472;2023-07-20T13:07:31;2.67;;;1.13;;
6412;SDS011;3239;48.714;9.472;2023-07-20T13:10:02;1.50;;;0.73;;
6412;SDS011;3239;48.714;9.472;2023-07-20T13:12:29;2.23;;;0.90;;
6412;SDS011;3239;48.714;9.472;2023-07-20T13:14:58;11.13;;;1.10;;
6412;SDS011;3239;48.714;9.472;2023-07-20T13:17:26;1.40;;;0.93;;
6412;SDS011;3239;48.714;9.472;2023-07-20T13:19:52;2.33;;;1.20;;
6412;SDS011;3239;48.714;9.472;2023-07-20T13:22:19;2.60;;;1.00;;
6412;SDS011;3239;48.714;9.472;2023-07-20T13:24:45;2.27;;;1.00;;
6412;SDS011;3239;48.714;9.472;2023-07-20T13:27:14;2.50;;;1.10;;
6412;SDS011;3239;48.714;9.472;2023-07-20T13:29:41;1.33;;;0.93;;
6412;SDS011;3239;48.714;9.472;2023-07-20T13:32:07;1.97;;;1.00;;
6412;SDS011;3239;48.714;9.472;2023-07-20T13:34:33;1.70;;;1.03;;
6412;SDS011;3239;48.714;9.472;2023-07-20T13:36:59;2.37;;;0.90;;
6412;SDS011;3239;48.714;9.472;2023-07-20T13:39:27;2.33;;;1.00;;
6412;SDS011;3239;48.714;9.472;2023-07-20T13:41:53;1.90;;;0.87;;
6412;SDS011;3239;48.714;9.472;2023-07-20T13:44:20;4.13;;;1.30;;
6412;SDS011;3239;48.714;9.472;2023-07-20T13:46:46;1.80;;;0.90;;
6412;SDS011;3239;48.714;9.472;2023-07-20T13:49:13;4.10;;;0.80;;
6412;SDS011;3239;48.714;9.472;2023-07-20T13:51:39;1.43;;;0.80;;
6412;SDS011;3239;48.714;9.472;2023-07-20T13:54:09;2.20;;;0.97;;
6412;SDS011;3239;48.714;9.472;2023-07-20T13:56:36;2.80;;;0.90;;
6412;SDS011;3239;48.714;9.472;2023-07-20T13:59:02;2.13;;;1.00;;
6412;SDS011;3239;48.714;9.472;2023-07-20T14:01:28;2.53;;;1.20;;
6412;SDS011;3239;48.714;9.472;2023-07-20T14:03:55;2.10;;;0.90;;
6412;SDS011;3239;48.714;9.472;2023-07-20T14:06:21;1.70;;;0.80;;
6412;SDS011;3239;48.714;9.472;2023-07-20T14:08:47;4.07;;;0.80;;
6412;SDS011;3239;48.714;9.472;2023-07-20T14:11:14;3.00;;;0.90;;
6412;SDS011;3239;48.714;9.472;2023-07-20T14:13:40;1.30;;;1.00;;
6412;SDS011;3239;48.714;9.472;2023-07-20T14:16:06;2.60;;;0.80;;
6412;SDS011;3239;48.714;9.472;2023-07-20T14:18:33;3.90;;;0.97;;
6412;SDS011;3239;48.714;9.472;2023-07-20T14:20:58;2.60;;;1.00;;
6412;SDS011;3239;48.714;9.472;2023-07-20T14:23:24;2.17;;;1.10;;
6412;SDS011;3239;48.714;9.472;2023-07-20T14:25:50;2.00;;;1.30;;
6412;SDS011;3239;48.714;9.472;2023-07-20T14:28:16;2.90;;;1.40;;
6412;SDS011;3239;48.714;9.472;2023-07-20T14:30:42;1.40;;;0.83;;
6412;SDS011;3239;48.714;9.472;2023-07-20T14:33:08;1.77;;;1.07;;
6412;SDS011;3239;48.714;9.472;2023-07-20T14:35:34;2.10;;;1.07;;
6412;SDS011;3239;48.714;9.472;2023-07-20T14:38:00;3.10;;;1.00;;
6412;SDS011;3239;48.714;9.472;2023-07-20T14:40:26;3.90;;;1.20;;
6412;SDS011;3239;48.714;9.472;2023-07-20T14:42:52;2.37;;;1.10;;
6412;SDS011;3239;48.714;9.472;2023-07-20T14:45:18;1.17;;;0.80;;
6412;SDS011;3239;48.714;9.472;2023-07-20T14:47:44;1.20;;;0.80;;
6412;SDS011;3239;48.714;9.472;2023-07-20T14:50:10;1.67;;;1.43;;
6412;SDS011;3239;48.714;9.472;2023-07-20T14:52:36;1.40;;;0.93;;
6412;SDS011;3239;48.714;9.472;2023-07-20T14:55:02;1.70;;;1.00;;
6412;SDS011;3239;48.714;9.472;2023-07-20T14:57:29;2.70;;;0.90;;
6412;SDS011;3239;48.714;9.472;2023-07-20T14:59:55;1.30;;;1.10;;
6412;SDS011;3239;48.714;9.472;2023-07-20T15:02:21;4.00;;;1.17;;
6412;SDS011;3239;48.714;9.472;2023-07-20T15:04:50;1.50;;;0.97;;
6412;SDS011;3239;48.714;9.472;2023-07-20T15:07:17;1.10;;;0.70;;
6412;SDS011;3239;48.714;9.472;2023-07-20T15:09:44;2.27;;;1.20;;
6412;SDS011;3239;48.714;9.472;2023-07-20T15:12:10;3.63;;;1.07;;
6412;SDS011;3239;48.714;9.472;2023-07-20T15:14:40;2.17;;;1.07;;
6412;SDS011;3239;48.714;9.472;2023-07-20T15:17:08;1.40;;;0.83;;
6412;SDS011;3239;48.714;9.472;2023-07-20T15:19:37;1.77;;;1.00;;
6412;SDS011;3239;48.714;9.472;2023-07-20T15:22:04;1.77;;;1.20;;
6412;SDS011;3239;48.714;9.472;2023-07-20T15:24:31;1.60;;;1.10;;
6412;SDS011;3239;48.714;9.472;2023-07-20T15:26:57;5.53;;;1.70;;
6412;SDS011;3239;48.714;9.472;2023-07-20T15:29:24;1.57;;;1.00;;
6412;SDS011;3239;48.714;9.472;2023-07-20T15:31:49;4.30;;;1.30;;
6412;SDS011;3239;48.714;9.472;2023-07-20T15:34:15;2.20;;;1.07;;
6412;SDS011;3239;48.714;9.472;2023-07-20T15:36:41;2.33;;;1.10;;